Fairweather Grounds 92NM Southeast of Yakutat, AK current weather conditions

sailwx.info

Last reported at 2019-Dec-10 22:46 UTC.
Time now 2020-Jan-18 14:00 UTC

Location: N 58°18' W 138°00'.
View on Google Maps.

See reports from other nearby stations

  
Tides and Currents Weather Stations Pressure Air Temp Water Temp Dewpoint Dewpoint Depression Visibility Wind Speed Wind Dir Waves Ship Positions
date/time (UTC)wind fromknots sea level pressurealtimeterstation pressurevisibilityair tempwater tempwave heightnotes
2020-Jan-18 12:50 050 7 gusting 11 -0.4 5.9 2.3
2020-Jan-18 11:50 050 11 gusting 17 -0.1 6.0 2.2
2020-Jan-18 10:50 070 17 gusting 31 -0.1 6.0 2.5
2020-Jan-18 09:50 060 13 gusting 19 -0.4 6.0 2.6
2020-Jan-18 08:50 080 25 gusting 33 -0.2 6.0 2.8
2020-Jan-18 07:50 090 29 gusting 36 -0.8 6.0 2.8
2020-Jan-18 06:50 090 31 gusting 36 -1.6 5.9 3.0
2020-Jan-18 05:50 090 31 gusting 36 -1.8 5.9 3.1
2020-Jan-18 04:50 080 31 gusting 36 -1.6 5.9 2.7
2020-Jan-18 03:50 080 31 gusting 38 -2.0 5.8 2.8
2020-Jan-18 02:50 090 31 gusting 36 -2.9 5.7 2.7
2020-Jan-18 01:50 090 31 gusting 38 -3.3 5.7 2.7
2020-Jan-18 00:50 090 31 gusting 38 -3.1 5.7 2.7
2020-Jan-17 23:50 090 31 gusting 38 -3.2 5.6 2.7
2020-Jan-17 22:50 090 31 gusting 36 -3.2 5.6 3.1
2020-Jan-17 21:50 090 29 gusting 34 -3.4 5.6 3.0
2020-Jan-17 20:50 090 33 gusting 36 -3.9 5.5 3.0
2020-Jan-17 19:50 090 33 gusting 38 -4.0 5.5 3.4
2020-Jan-17 18:50 090 34 gusting 42 -4.6 5.5 3.6
2020-Jan-17 17:50 090 34 gusting 40 -4.4 5.5 3.2
2020-Jan-17 16:50 100 34 gusting 40 -4.5 5.5 3.6
2020-Jan-17 15:50 100 33 gusting 38 -4.1 5.6 3.7
2020-Jan-17 14:50 100 34 gusting 44 -4.3 5.6 3.6
2020-Jan-17 13:50 090 36 gusting 46 -4.3 5.6 3.4
2020-Jan-17 12:50 090 34 gusting 42 -4.1 5.7 3.4
2020-Jan-17 11:50 100 33 gusting 40 -3.4 5.7 3.2
2020-Jan-17 10:50 100 33 gusting 38 -3.4 5.7 3.3
2020-Jan-17 09:50 090 31 gusting 38 -2.9 5.7 3.4
2020-Jan-17 08:50 100 29 gusting 34 -3.2 5.8 3.4
2020-Jan-17 07:50 100 27 gusting 33 -2.7 5.8 3.0
2020-Jan-17 06:50 100 29 gusting 36 -2.6 5.8 2.8
2020-Jan-17 05:50 110 25 gusting 33 -1.9 5.9 3.1
2020-Jan-17 04:50 100 27 gusting 34 -1.9 5.9 3.2
2020-Jan-17 03:50 100 27 gusting 33 -2.0 5.9 3.1
2020-Jan-17 02:50 100 29 gusting 34 -1.7 5.9 3.4
2020-Jan-17 01:50 100 27 gusting 34 -1.6 6.0 3.2
2020-Jan-17 00:50 130 15 gusting 29 -2.0 5.9 2.8
2020-Jan-16 23:50 240 7 gusting 11 -1.5 6.0 2.3
2020-Jan-16 22:50 020 5 gusting 13 -0.4 6.1 2.6
2020-Jan-16 21:50 110 11 gusting 19 -0.8 6.1 2.9
2020-Jan-16 20:50 050 11 gusting 15 -0.4 6.1 2.8
2020-Jan-16 19:50 290 5 gusting 11 -0.3 6.0 2.9
2020-Jan-16 18:50 210 3 gusting 7 -0.2 5.9 2.7
2020-Jan-16 17:50 010 5 gusting 9 -0.4 6.1 2.7
2020-Jan-16 16:50 110 11 gusting 23 0.6 6.1 2.3
2020-Jan-16 15:50 320 1 gusting 5 0.2 6.0 2.1
2020-Jan-16 14:50 230 11 gusting 13 0.2 5.6 2.1